createdAt,value
2022-12-31T00:01:23.914Z,10.10
2022-12-31T00:03:50.394Z,10.20
2022-12-31T00:06:24.407Z,10.20
2022-12-31T00:08:51.546Z,10.30
2022-12-31T00:11:18.501Z,10.30
2022-12-31T00:13:46.556Z,10.30
2022-12-31T00:16:14.447Z,10.30
2022-12-31T00:18:43.891Z,10.40
2022-12-31T00:21:10.839Z,10.40
2022-12-31T00:23:37.723Z,10.40
2022-12-31T00:26:05.411Z,10.40
2022-12-31T00:28:32.221Z,10.40
2022-12-31T00:31:04.416Z,10.40
2022-12-31T00:33:30.893Z,10.40
2022-12-31T00:36:04.336Z,10.40
2022-12-31T00:38:30.787Z,10.40
2022-12-31T00:40:57.670Z,10.40
2022-12-31T00:43:24.126Z,10.40
2022-12-31T00:45:50.652Z,10.40
2022-12-31T00:48:17.540Z,10.40
2022-12-31T00:50:45.174Z,10.30
2022-12-31T00:53:12.043Z,10.30
2022-12-31T00:55:38.511Z,10.30
2022-12-31T00:58:05.628Z,10.30
2022-12-31T01:00:32.094Z,10.30
2022-12-31T01:02:58.643Z,10.30
2022-12-31T01:08:12.895Z,10.40
2022-12-31T01:11:03.004Z,10.40
2022-12-31T01:13:29.878Z,10.40
2022-12-31T01:15:56.376Z,10.50
2022-12-31T01:18:22.884Z,10.50
2022-12-31T01:20:49.771Z,10.50
2022-12-31T01:23:16.224Z,10.50
2022-12-31T01:25:42.733Z,10.50
2022-12-31T01:28:09.980Z,10.50
2022-12-31T01:30:40.367Z,10.40
2022-12-31T01:33:07.340Z,10.40
2022-12-31T01:35:34.550Z,10.40
2022-12-31T01:38:01.059Z,10.40
2022-12-31T01:40:28.650Z,10.40
2022-12-31T01:42:55.799Z,10.50
2022-12-31T01:45:22.935Z,10.50
2022-12-31T01:47:54.449Z,10.50
2022-12-31T01:50:23.365Z,10.50
2022-12-31T01:52:51.669Z,10.50
2022-12-31T01:55:20.375Z,10.50
2022-12-31T01:57:48.088Z,10.50
2022-12-31T02:00:15.328Z,10.60
2022-12-31T02:02:41.843Z,10.60
2022-12-31T02:05:27.716Z,10.60
2022-12-31T02:07:54.662Z,10.50
2022-12-31T02:10:21.278Z,10.60
2022-12-31T02:12:48.535Z,10.60
2022-12-31T02:15:15.515Z,10.60
2022-12-31T02:17:56.087Z,10.70
2022-12-31T02:20:40.729Z,10.60
2022-12-31T02:23:13.433Z,10.60
2022-12-31T02:25:52.276Z,10.60
2022-12-31T02:28:37.381Z,10.60
2022-12-31T02:31:09.562Z,10.70
2022-12-31T02:33:39.509Z,10.70
2022-12-31T02:36:09.942Z,10.70
2022-12-31T02:41:50.600Z,10.70
2022-12-31T02:44:29.574Z,10.70
2022-12-31T02:47:10.442Z,10.70
2022-12-31T02:49:43.143Z,10.80
2022-12-31T02:52:21.540Z,10.80
2022-12-31T02:54:50.991Z,10.70
2022-12-31T02:57:27.164Z,10.70
2022-12-31T03:00:29.976Z,10.70
2022-12-31T03:02:58.769Z,10.70
2022-12-31T03:05:27.125Z,10.60
2022-12-31T03:07:53.826Z,10.60
2022-12-31T03:10:20.694Z,10.60
2022-12-31T03:12:48.113Z,10.60
2022-12-31T03:15:20.670Z,10.60
2022-12-31T03:17:47.121Z,10.60
2022-12-31T03:20:32.933Z,10.60
2022-12-31T03:22:59.450Z,10.60
2022-12-31T03:25:35.935Z,10.60
2022-12-31T03:28:04.092Z,10.50
2022-12-31T03:30:31.823Z,10.60
2022-12-31T03:32:59.049Z,10.60
2022-12-31T03:35:26.713Z,10.60
2022-12-31T03:37:53.594Z,10.60
2022-12-31T03:40:21.685Z,10.60
2022-12-31T03:42:48.663Z,10.60
2022-12-31T03:45:15.285Z,10.60
2022-12-31T03:47:42.490Z,10.60
2022-12-31T03:50:10.765Z,10.60
2022-12-31T03:52:38.020Z,10.60
2022-12-31T03:55:05.170Z,10.60
2022-12-31T03:57:32.205Z,10.60
2022-12-31T03:59:58.829Z,10.60
2022-12-31T04:02:28.849Z,10.60
2022-12-31T04:04:55.915Z,10.60
2022-12-31T04:07:22.811Z,10.60
2022-12-31T04:09:49.336Z,10.60
2022-12-31T04:12:16.211Z,10.60
2022-12-31T04:14:43.084Z,10.60
2022-12-31T04:17:09.989Z,10.60
2022-12-31T04:19:37.499Z,10.60
2022-12-31T04:22:04.412Z,10.60
2022-12-31T04:24:31.323Z,10.60
2022-12-31T04:27:02.099Z,10.60
2022-12-31T04:29:32.349Z,10.60
2022-12-31T04:31:58.844Z,10.60
2022-12-31T04:34:25.759Z,10.60
2022-12-31T04:36:52.621Z,10.60
2022-12-31T04:39:19.067Z,10.60
2022-12-31T04:41:45.940Z,10.60
2022-12-31T04:44:13.097Z,10.70
2022-12-31T04:46:39.547Z,10.70
2022-12-31T04:49:06.002Z,10.70
2022-12-31T04:51:32.975Z,10.70
2022-12-31T04:53:59.784Z,10.70
2022-12-31T04:56:27.296Z,10.70
2022-12-31T04:58:54.579Z,10.80
2022-12-31T05:01:21.525Z,10.70
2022-12-31T05:03:48.620Z,10.80
2022-12-31T05:06:16.703Z,10.70
2022-12-31T05:08:43.579Z,10.80
2022-12-31T05:11:10.819Z,10.80
2022-12-31T05:13:37.336Z,10.80
2022-12-31T05:16:04.606Z,10.80
2022-12-31T05:18:31.547Z,10.80
2022-12-31T05:20:58.043Z,10.80
2022-12-31T05:23:24.980Z,10.80
2022-12-31T05:25:51.584Z,10.80
2022-12-31T05:28:18.091Z,10.80
2022-12-31T05:30:45.353Z,10.70
2022-12-31T05:33:11.838Z,10.70
2022-12-31T05:35:38.429Z,10.70
2022-12-31T05:38:05.322Z,10.70
2022-12-31T05:40:31.812Z,10.60
2022-12-31T05:42:58.792Z,10.70
2022-12-31T05:45:30.340Z,10.70
2022-12-31T05:47:58.101Z,10.70
2022-12-31T05:50:24.613Z,10.60
2022-12-31T05:52:51.497Z,10.60
2022-12-31T05:55:17.981Z,10.50
2022-12-31T05:57:44.427Z,10.50
2022-12-31T06:00:11.963Z,10.50
2022-12-31T06:02:38.893Z,10.40
2022-12-31T06:05:06.026Z,10.40
2022-12-31T06:07:32.955Z,10.40
2022-12-31T06:09:59.406Z,10.40
2022-12-31T06:12:26.303Z,10.40
2022-12-31T06:14:53.169Z,10.40
2022-12-31T06:17:20.503Z,10.30
2022-12-31T06:19:47.307Z,10.30
2022-12-31T06:22:15.784Z,10.30
2022-12-31T06:24:42.339Z,10.20
2022-12-31T06:27:08.871Z,10.20
2022-12-31T06:29:35.836Z,10.20
2022-12-31T06:32:02.855Z,10.20
2022-12-31T06:34:29.752Z,10.20
2022-12-31T06:36:56.644Z,10.20
2022-12-31T06:39:23.147Z,10.30
2022-12-31T06:41:49.644Z,10.30
2022-12-31T06:44:16.650Z,10.30
2022-12-31T06:46:43.131Z,10.30
2022-12-31T06:49:10.060Z,10.40
2022-12-31T06:51:36.505Z,10.40
2022-12-31T06:54:03.413Z,10.40
2022-12-31T06:56:34.518Z,10.40
2022-12-31T06:59:02.343Z,10.40
2022-12-31T07:01:47.892Z,10.40
2022-12-31T07:04:35.506Z,10.40
2022-12-31T07:07:24.448Z,10.40
2022-12-31T07:10:01.878Z,10.40
2022-12-31T07:12:46.572Z,10.40
2022-12-31T07:15:19.635Z,10.40
2022-12-31T07:17:53.184Z,10.30
2022-12-31T07:20:20.327Z,10.30
2022-12-31T07:22:47.291Z,10.30
2022-12-31T07:25:14.736Z,10.30
2022-12-31T07:27:51.666Z,10.30
2022-12-31T07:30:21.201Z,10.30
2022-12-31T07:33:02.316Z,10.30
2022-12-31T07:35:34.748Z,10.30
2022-12-31T07:38:20.364Z,10.30
2022-12-31T07:40:53.155Z,10.30
2022-12-31T07:43:28.245Z,10.30
2022-12-31T07:46:01.152Z,10.30
2022-12-31T07:48:28.337Z,10.30
2022-12-31T07:50:55.806Z,10.30
2022-12-31T07:53:25.975Z,10.30
2022-12-31T07:55:56.988Z,10.30
2022-12-31T07:58:46.717Z,10.30
2022-12-31T08:01:15.905Z,10.30
2022-12-31T08:03:54.460Z,10.40
2022-12-31T08:06:35.553Z,10.30
2022-12-31T08:09:11.067Z,10.30
2022-12-31T08:11:55.069Z,10.30
2022-12-31T08:14:22.278Z,10.30
2022-12-31T08:16:48.894Z,10.30
2022-12-31T08:19:24.968Z,10.30
2022-12-31T08:22:10.902Z,10.40
2022-12-31T08:25:07.151Z,10.40
2022-12-31T08:27:50.356Z,10.40
2022-12-31T08:30:19.216Z,10.40
2022-12-31T08:32:48.409Z,10.40
2022-12-31T08:35:34.118Z,10.40
2022-12-31T08:38:07.065Z,10.40
2022-12-31T08:40:48.913Z,10.40
2022-12-31T08:43:20.989Z,10.40
2022-12-31T08:45:49.159Z,10.40
2022-12-31T08:48:22.166Z,10.40
2022-12-31T08:50:48.934Z,10.50
2022-12-31T08:53:15.506Z,10.50
2022-12-31T08:55:43.832Z,10.60
2022-12-31T08:58:21.003Z,10.60
2022-12-31T09:00:49.837Z,10.70
2022-12-31T09:03:31.834Z,10.70
2022-12-31T09:06:08.210Z,10.70
2022-12-31T09:08:59.164Z,10.80
2022-12-31T09:11:44.254Z,10.80
2022-12-31T09:14:40.775Z,10.80
2022-12-31T09:17:19.099Z,10.80
2022-12-31T09:19:46.018Z,10.90
2022-12-31T09:22:12.963Z,10.90
2022-12-31T09:24:39.479Z,10.90
2022-12-31T09:33:10.222Z,11.00
2022-12-31T09:35:46.511Z,11.10
2022-12-31T09:38:34.018Z,11.10
2022-12-31T09:41:09.412Z,11.10
2022-12-31T09:44:00.763Z,11.20
2022-12-31T09:46:55.560Z,11.20
2022-12-31T09:49:38.758Z,11.20
2022-12-31T09:52:19.955Z,11.30
2022-12-31T09:54:49.443Z,11.30
2022-12-31T09:57:25.676Z,11.30
2022-12-31T10:00:01.689Z,11.30
2022-12-31T10:02:47.310Z,11.30
2022-12-31T10:05:30.662Z,11.30
2022-12-31T10:08:12.791Z,11.40
2022-12-31T10:10:57.625Z,11.40
2022-12-31T10:13:29.826Z,11.50
2022-12-31T10:16:10.282Z,11.50
2022-12-31T10:18:56.198Z,11.50
2022-12-31T10:21:31.623Z,11.50
2022-12-31T10:24:13.952Z,11.60
2022-12-31T10:26:40.373Z,11.60
2022-12-31T10:29:12.718Z,11.60
2022-12-31T10:32:05.263Z,11.70
2022-12-31T10:34:50.968Z,11.70
2022-12-31T10:37:18.354Z,11.70
2022-12-31T10:39:56.829Z,11.70
2022-12-31T10:42:41.929Z,11.80
2022-12-31T10:45:30.675Z,11.90
2022-12-31T10:48:09.771Z,11.90
2022-12-31T10:50:47.339Z,12.00
2022-12-31T10:53:27.723Z,12.10
2022-12-31T10:56:07.765Z,12.20
2022-12-31T10:58:54.511Z,12.20
2022-12-31T11:01:33.010Z,12.20
2022-12-31T11:04:00.178Z,12.30
2022-12-31T11:06:52.429Z,12.30
2022-12-31T11:09:38.054Z,12.30
2022-12-31T11:12:27.623Z,12.30
2022-12-31T11:15:00.944Z,12.40
2022-12-31T11:17:39.659Z,12.40
2022-12-31T11:20:29.682Z,12.40
2022-12-31T11:23:04.283Z,12.40
2022-12-31T11:25:53.808Z,12.40
2022-12-31T11:28:39.010Z,12.40
2022-12-31T11:31:17.495Z,12.40
2022-12-31T11:34:02.609Z,12.40
2022-12-31T11:36:51.482Z,12.40
2022-12-31T11:39:31.066Z,12.40
2022-12-31T11:42:02.562Z,12.50
2022-12-31T11:44:46.921Z,12.60
2022-12-31T11:47:16.445Z,12.60
2022-12-31T11:49:59.787Z,12.70
2022-12-31T11:52:32.782Z,12.70
2022-12-31T11:55:02.411Z,12.70
2022-12-31T11:57:39.041Z,12.70
2022-12-31T12:00:25.155Z,12.70
2022-12-31T12:02:53.797Z,12.70
2022-12-31T12:05:22.557Z,12.70
2022-12-31T12:07:49.711Z,12.70
2022-12-31T12:10:28.007Z,12.70
2022-12-31T12:13:00.422Z,12.70
2022-12-31T12:15:31.934Z,12.70
2022-12-31T12:18:01.832Z,12.80
2022-12-31T12:20:30.368Z,12.90
2022-12-31T12:22:58.162Z,12.80
2022-12-31T12:25:26.614Z,12.80
2022-12-31T12:27:54.483Z,12.80
2022-12-31T12:30:22.665Z,12.80
2022-12-31T12:32:53.505Z,12.90
2022-12-31T12:35:24.180Z,12.90
2022-12-31T12:37:58.451Z,12.90
2022-12-31T12:40:31.617Z,12.90
2022-12-31T12:43:01.207Z,13.00
2022-12-31T12:45:30.462Z,13.00
2022-12-31T12:48:01.754Z,13.00
2022-12-31T12:50:43.755Z,12.90
2022-12-31T12:53:29.060Z,13.00
2022-12-31T12:56:08.728Z,13.00
2022-12-31T12:58:53.592Z,13.00
2022-12-31T13:01:20.577Z,13.00
2022-12-31T13:04:32.341Z,13.00
2022-12-31T13:06:43.045Z,13.00
2022-12-31T13:09:18.885Z,13.00
2022-12-31T13:11:51.967Z,13.00
2022-12-31T13:14:21.848Z,13.00
2022-12-31T13:17:07.409Z,13.00
2022-12-31T13:19:42.552Z,13.00
2022-12-31T13:22:13.544Z,13.10
2022-12-31T13:24:45.770Z,13.10
2022-12-31T13:27:24.643Z,13.10
2022-12-31T13:29:52.180Z,13.10
2022-12-31T13:32:23.497Z,13.10
2022-12-31T13:34:54.692Z,13.10
2022-12-31T13:37:31.381Z,13.00
2022-12-31T13:40:01.511Z,13.00
2022-12-31T13:42:41.607Z,13.00
2022-12-31T13:45:23.267Z,13.00
2022-12-31T13:47:52.344Z,13.00
2022-12-31T13:50:31.697Z,13.00
2022-12-31T13:53:05.400Z,13.00
2022-12-31T13:55:31.844Z,13.10
2022-12-31T13:58:05.562Z,13.10
2022-12-31T14:00:39.349Z,13.10
2022-12-31T14:03:13.148Z,13.20
2022-12-31T14:05:43.292Z,13.20
2022-12-31T14:08:10.614Z,13.20
2022-12-31T14:10:43.265Z,13.20
2022-12-31T14:13:34.393Z,13.20
2022-12-31T14:16:20.719Z,13.30
2022-12-31T14:18:50.235Z,13.30
2022-12-31T14:21:26.044Z,13.30
2022-12-31T14:23:56.977Z,13.30
2022-12-31T14:26:27.448Z,13.30
2022-12-31T14:28:53.957Z,13.30
2022-12-31T14:31:29.554Z,13.40
2022-12-31T14:34:08.597Z,13.40
2022-12-31T14:36:38.022Z,13.40
2022-12-31T14:39:17.458Z,13.40
2022-12-31T14:41:49.215Z,13.40
2022-12-31T14:44:48.475Z,13.40
2022-12-31T14:47:32.876Z,13.40
2022-12-31T14:50:18.369Z,13.50
2022-12-31T14:52:50.974Z,13.50
2022-12-31T14:55:18.148Z,13.50
2022-12-31T14:58:25.780Z,13.50
2022-12-31T15:00:38.926Z,13.50
2022-12-31T15:03:14.595Z,13.50
2022-12-31T15:06:13.960Z,13.40
2022-12-31T15:08:47.233Z,13.40
2022-12-31T15:11:18.733Z,13.50
2022-12-31T15:13:52.457Z,13.50
2022-12-31T15:16:22.569Z,13.50
2022-12-31T15:19:08.020Z,13.40
2022-12-31T15:21:38.795Z,13.40
2022-12-31T15:24:22.949Z,13.40
2022-12-31T15:26:52.017Z,13.50
2022-12-31T15:29:31.923Z,13.50
2022-12-31T15:32:00.255Z,13.50
2022-12-31T15:34:32.828Z,13.60
2022-12-31T15:37:01.597Z,13.60
2022-12-31T15:39:31.265Z,13.60
2022-12-31T15:44:49.228Z,13.50
2022-12-31T15:47:15.657Z,13.50
2022-12-31T15:49:44.710Z,13.60
2022-12-31T15:52:18.501Z,13.60
2022-12-31T15:54:49.281Z,13.60
2022-12-31T15:57:31.849Z,13.60
2022-12-31T15:59:59.603Z,13.50
2022-12-31T16:02:27.568Z,13.60
2022-12-31T16:04:57.666Z,13.60
2022-12-31T16:07:24.473Z,13.40
2022-12-31T16:09:52.976Z,13.60
2022-12-31T16:12:20.675Z,13.60
2022-12-31T16:14:50.508Z,13.60
2022-12-31T16:17:26.109Z,13.70
2022-12-31T16:19:53.078Z,13.60
2022-12-31T16:22:27.377Z,13.60
2022-12-31T16:27:45.606Z,13.70
2022-12-31T16:30:41.827Z,13.70
2022-12-31T16:33:12.952Z,13.70
2022-12-31T16:35:39.466Z,13.70
2022-12-31T16:38:16.663Z,13.70
2022-12-31T16:41:01.638Z,13.70
2022-12-31T16:43:30.412Z,13.60
2022-12-31T16:46:08.040Z,13.60
2022-12-31T16:48:34.985Z,13.60
2022-12-31T16:51:01.820Z,13.50
2022-12-31T16:53:30.835Z,13.50
2022-12-31T16:56:01.100Z,13.40
2022-12-31T16:58:29.500Z,13.40
2022-12-31T17:01:01.025Z,13.40
2022-12-31T17:03:28.368Z,13.40
2022-12-31T17:05:57.273Z,13.30
2022-12-31T17:08:25.361Z,13.30
2022-12-31T17:10:51.817Z,13.30
2022-12-31T17:13:29.414Z,13.30
2022-12-31T17:15:57.998Z,13.30
2022-12-31T17:18:26.617Z,13.30
2022-12-31T17:20:54.127Z,13.40
2022-12-31T17:23:25.874Z,13.40
2022-12-31T17:26:00.179Z,13.40
2022-12-31T17:28:27.124Z,13.50
2022-12-31T17:31:13.631Z,13.50
2022-12-31T17:33:40.252Z,13.50
2022-12-31T17:36:15.183Z,14.20
2022-12-31T17:38:42.152Z,13.60
2022-12-31T17:41:09.033Z,13.60
2022-12-31T17:43:36.668Z,13.70
2022-12-31T17:46:03.910Z,13.60
2022-12-31T17:48:30.808Z,13.60
2022-12-31T17:51:00.676Z,13.60
2022-12-31T17:53:27.157Z,13.60
2022-12-31T17:55:55.947Z,13.50
2022-12-31T17:58:43.211Z,13.50
2022-12-31T18:01:10.626Z,13.50
2022-12-31T18:03:37.743Z,13.40
2022-12-31T18:06:05.307Z,13.50
2022-12-31T18:08:31.793Z,13.50
2022-12-31T18:10:59.240Z,13.40
2022-12-31T18:13:26.756Z,13.40
2022-12-31T18:15:53.788Z,13.40
2022-12-31T18:18:25.348Z,13.40
2022-12-31T18:21:02.841Z,13.40
2022-12-31T18:23:31.658Z,13.40
2022-12-31T18:25:58.159Z,13.30
2022-12-31T18:28:24.639Z,13.40
2022-12-31T18:30:51.753Z,13.30
2022-12-31T18:33:22.258Z,13.30
2022-12-31T18:36:09.586Z,13.30
2022-12-31T18:38:36.717Z,13.30
2022-12-31T18:41:04.028Z,13.30
2022-12-31T18:43:30.941Z,13.30
2022-12-31T18:45:58.088Z,13.30
2022-12-31T18:48:24.639Z,13.30
2022-12-31T18:50:51.122Z,13.30
2022-12-31T18:53:22.314Z,13.30
2022-12-31T18:55:50.370Z,13.20
2022-12-31T18:58:17.525Z,13.30
2022-12-31T19:00:44.333Z,13.20
2022-12-31T19:03:20.832Z,13.30
2022-12-31T19:05:50.103Z,13.30
2022-12-31T19:08:17.857Z,13.20
2022-12-31T19:10:44.355Z,13.30
2022-12-31T19:13:14.416Z,13.30
2022-12-31T19:15:45.768Z,13.30
2022-12-31T19:18:12.715Z,13.30
2022-12-31T19:20:40.004Z,13.30
2022-12-31T19:23:06.498Z,13.40
2022-12-31T19:25:34.489Z,13.40
2022-12-31T19:28:02.114Z,13.50
2022-12-31T19:30:32.569Z,13.50
2022-12-31T19:32:59.772Z,13.50
2022-12-31T19:35:26.690Z,13.50
2022-12-31T19:37:54.104Z,13.60
2022-12-31T19:40:25.027Z,13.50
2022-12-31T19:42:53.696Z,13.50
2022-12-31T19:45:27.682Z,13.50
2022-12-31T19:47:54.770Z,13.50
2022-12-31T19:50:22.699Z,13.60
2022-12-31T19:52:50.611Z,13.50
2022-12-31T19:55:19.663Z,13.50
2022-12-31T19:57:47.186Z,13.50
2022-12-31T20:00:16.240Z,13.50
2022-12-31T20:02:44.159Z,13.50
2022-12-31T20:05:11.584Z,13.50
2022-12-31T20:07:38.764Z,13.50
2022-12-31T20:10:05.742Z,13.50
2022-12-31T20:12:32.273Z,13.50
2022-12-31T20:14:59.164Z,13.50
2022-12-31T20:17:26.450Z,13.50
2022-12-31T20:19:53.411Z,13.40
2022-12-31T20:22:20.080Z,13.40
2022-12-31T20:24:46.529Z,13.40
2022-12-31T20:27:18.261Z,13.40
2022-12-31T20:29:45.285Z,13.40
2022-12-31T20:32:12.147Z,13.40
2022-12-31T20:34:38.680Z,13.30
2022-12-31T20:37:05.133Z,13.30
2022-12-31T20:39:32.005Z,13.40
2022-12-31T20:41:58.891Z,13.40
2022-12-31T20:44:26.335Z,13.30
2022-12-31T20:46:52.850Z,13.30
2022-12-31T20:49:37.148Z,13.30
2022-12-31T20:52:06.389Z,13.30
2022-12-31T20:54:33.326Z,13.30
2022-12-31T20:57:00.518Z,13.30
2022-12-31T20:59:28.384Z,13.30
2022-12-31T21:02:20.384Z,13.30
2022-12-31T21:04:42.341Z,13.30
2022-12-31T21:07:08.910Z,13.40
2022-12-31T21:09:35.790Z,13.40
2022-12-31T21:12:20.978Z,13.40
2022-12-31T21:14:47.861Z,13.50
2022-12-31T21:17:14.320Z,13.50
2022-12-31T21:19:41.221Z,13.50
2022-12-31T21:22:07.675Z,13.50
2022-12-31T21:24:34.547Z,13.60
2022-12-31T21:27:01.008Z,13.60
2022-12-31T21:29:34.154Z,13.60
2022-12-31T21:32:01.553Z,13.70
2022-12-31T21:34:28.103Z,13.70
2022-12-31T21:36:54.582Z,13.80
2022-12-31T21:39:21.461Z,13.80
2022-12-31T21:41:51.291Z,13.80
2022-12-31T21:44:22.218Z,13.90
2022-12-31T21:47:25.199Z,13.90
2022-12-31T21:49:36.386Z,13.90
2022-12-31T21:52:35.367Z,14.00
2022-12-31T21:55:22.299Z,13.90
2022-12-31T21:58:24.189Z,14.10
2022-12-31T22:00:55.172Z,14.10
2022-12-31T22:03:24.449Z,14.10
2022-12-31T22:05:56.006Z,14.10
2022-12-31T22:08:22.896Z,14.20
2022-12-31T22:10:52.870Z,14.20
2022-12-31T22:13:20.369Z,14.20
2022-12-31T22:15:47.551Z,14.20
2022-12-31T22:18:15.198Z,14.20
2022-12-31T22:20:41.716Z,14.20
2022-12-31T22:23:08.740Z,14.30
2022-12-31T22:25:35.834Z,14.30
2022-12-31T22:28:36.899Z,14.30
2022-12-31T22:30:49.575Z,14.40
2022-12-31T22:33:16.035Z,14.50
2022-12-31T22:35:43.409Z,14.40
2022-12-31T22:38:12.178Z,14.40
2022-12-31T22:40:39.621Z,14.40
2022-12-31T22:43:06.080Z,14.40
2022-12-31T22:45:32.946Z,14.50
2022-12-31T22:47:59.422Z,14.50
2022-12-31T22:50:26.329Z,14.60
2022-12-31T22:52:52.799Z,14.60
2022-12-31T22:55:19.677Z,14.70
2022-12-31T22:57:46.155Z,14.60
2022-12-31T23:00:14.439Z,14.60
2022-12-31T23:02:42.315Z,14.60
2022-12-31T23:05:14.851Z,14.70
2022-12-31T23:07:42.449Z,14.60
2022-12-31T23:10:28.425Z,14.60
2022-12-31T23:12:54.891Z,14.60
2022-12-31T23:15:40.804Z,14.60
2022-12-31T23:18:26.257Z,14.60
2022-12-31T23:21:11.397Z,14.60
2022-12-31T23:23:38.272Z,14.70
2022-12-31T23:26:04.790Z,14.70
2022-12-31T23:28:31.259Z,14.70
2022-12-31T23:30:58.233Z,14.70
2022-12-31T23:33:25.379Z,14.70
2022-12-31T23:36:01.718Z,14.80
2022-12-31T23:38:28.185Z,14.80
2022-12-31T23:40:55.092Z,14.80
2022-12-31T23:43:22.237Z,14.80
2022-12-31T23:45:50.638Z,14.90
2022-12-31T23:48:17.168Z,14.80
2022-12-31T23:50:47.650Z,14.80
2022-12-31T23:53:17.812Z,14.80
2022-12-31T23:55:45.077Z,14.80
2022-12-31T23:58:11.531Z,14.80
